Terminal Aerodrome Forecast
Issued by NWS

Home | Current Version | Previous Version | Text Only | Print | Product List | Glossary On
Versions: 1 2 3 4 5 6 7 8 9 10 11 12 13 14 15
387
FTPA31 PHFO 052324
TAFHKO
TAF
PHKO 052324Z 0600/0624 25010KT P6SM BKN060
     FM060600 15005KT P6SM SCT060
     FM062000 25010KT P6SM BKN060=

USA.gov is the U.S. government's official web portal to all federal, state and local government web resources and services.